Time;durP1;ratioP1;P1;durP2;ratioP2;P2;SDS_P1;SDS_P2;PMS_P1;PMS_P2;Temp;Humidity;BMP_temperature;BMP_pressure;BME280_temperature;BME280_humidity;BME280_pressure;Samples;Min_cycle;Max_cycle;Signal;HPM_P1;HPM_P2
2023/09/04 00:00:28;;;;;;;6.15;5.15;;;;;;;;;;5025609;28;21239;-76
2023/09/04 00:02:53;;;;;;;7.18;5.63;;;;;;;;;;5010435;28;20101;-78
2023/09/04 00:05:18;;;;;;;5.80;5.05;;;;;;;;;;5013900;28;20022;-78
2023/09/04 00:07:44;;;;;;;6.38;4.97;;;;;;;;;;5029527;28;20113;-78
2023/09/04 00:10:10;;;;;;;5.38;4.85;;;;;;;;;;5031522;28;20068;-78
2023/09/04 00:12:36;;;;;;;5.22;4.72;;;;;;;;;;5033465;28;20059;-78
2023/09/04 00:15:02;;;;;;;4.72;4.25;;;;;;;;;;5031950;28;20444;-78
2023/09/04 00:17:27;;;;;;;8.30;4.43;;;;;;;;;;5013076;28;20037;-78
2023/09/04 00:19:52;;;;;;;6.10;5.50;;;;;;;;;;5015086;28;20038;-78
2023/09/04 00:22:18;;;;;;;6.57;4.80;;;;;;;;;;5032266;28;20042;-77
2023/09/04 00:24:43;;;;;;;5.50;5.00;;;;;;;;;;5031030;28;20056;-78
2023/09/04 00:27:08;;;;;;;5.43;4.50;;;;;;;;;;5036973;27;20051;-78
2023/09/04 00:29:33;;;;;;;7.60;4.93;;;;;;;;;;5014793;28;20116;-78
2023/09/04 00:32:02;;;;;;;12.07;5.70;;;;;;;;;;5031262;28;20034;-78
2023/09/04 00:34:27;;;;;;;6.90;4.63;;;;;;;;;;5010633;28;20555;-76
2023/09/04 00:36:52;;;;;;;7.00;4.90;;;;;;;;;;5029251;28;20090;-78
2023/09/04 00:39:18;;;;;;;8.35;5.03;;;;;;;;;;5015075;28;20399;-78
2023/09/04 00:41:43;;;;;;;5.32;4.82;;;;;;;;;;5013289;28;20391;-78
2023/09/04 00:44:09;;;;;;;6.78;5.63;;;;;;;;;;5034103;28;20063;-78
2023/09/04 00:46:34;;;;;;;6.38;5.50;;;;;;;;;;5032278;28;20271;-78
2023/09/04 00:48:59;;;;;;;6.82;5.53;;;;;;;;;;5013324;28;20041;-78
2023/09/04 00:51:25;;;;;;;5.78;5.22;;;;;;;;;;5030325;28;20072;-78
2023/09/04 00:53:50;;;;;;;7.97;5.40;;;;;;;;;;5013273;28;20037;-78
2023/09/04 00:56:16;;;;;;;4.78;4.38;;;;;;;;;;5032021;28;20064;-78
2023/09/04 00:58:41;;;;;;;7.00;5.32;;;;;;;;;;5014342;28;20044;-78
2023/09/04 01:01:07;;;;;;;5.00;4.50;;;;;;;;;;5022056;28;20042;-78
2023/09/04 01:03:32;;;;;;;4.80;4.38;;;;;;;;;;5013912;28;20044;-78
2023/09/04 01:05:58;;;;;;;4.88;4.38;;;;;;;;;;5032218;28;20014;-78
2023/09/04 01:08:25;;;;;;;5.72;4.70;;;;;;;;;;5016849;28;20026;-78
2023/09/04 01:11:15;;;;;;;4.22;3.83;;;;;;;;;;5013158;28;20033;-78
2023/09/04 01:14:07;;;;;;;4.43;3.95;;;;;;;;;;5029534;28;20116;-77
2023/09/04 01:16:32;;;;;;;5.45;4.40;;;;;;;;;;5019377;28;20523;-78
2023/09/04 01:19:00;;;;;;;4.85;4.30;;;;;;;;;;5034402;28;20036;-78
2023/09/04 01:21:25;;;;;;;8.48;4.25;;;;;;;;;;5011841;28;20060;-78
2023/09/04 01:23:51;;;;;;;4.57;3.90;;;;;;;;;;5015468;28;20394;-78
2023/09/04 01:26:26;;;;;;;4.03;3.72;;;;;;;;;;5033310;28;20106;-78
2023/09/04 01:29:09;;;;;;;6.53;4.32;;;;;;;;;;5015484;28;20040;-78
2023/09/04 01:31:48;;;;;;;5.45;4.32;;;;;;;;;;5060095;27;20054;-78
2023/09/04 01:34:22;;;;;;;5.25;4.30;;;;;;;;;;5013697;28;20030;-78
2023/09/04 01:36:48;;;;;;;4.22;3.90;;;;;;;;;;5013571;28;20428;-78
2023/09/04 01:39:14;;;;;;;7.53;3.95;;;;;;;;;;5013463;28;20033;-78
2023/09/04 01:41:39;;;;;;;4.45;4.05;;;;;;;;;;5023478;28;20474;-78
2023/09/04 01:44:06;;;;;;;4.72;3.63;;;;;;;;;;5026797;28;20126;-78
2023/09/04 01:46:32;;;;;;;4.30;3.83;;;;;;;;;;5032628;28;20114;-78
2023/09/04 01:48:57;;;;;;;3.78;3.47;;;;;;;;;;5022415;28;20069;-78
2023/09/04 01:51:22;;;;;;;4.68;3.97;;;;;;;;;;5031686;28;20046;-78
2023/09/04 01:53:48;;;;;;;4.30;3.90;;;;;;;;;;5038110;28;20183;-78
2023/09/04 01:56:13;;;;;;;4.45;3.90;;;;;;;;;;5038939;28;20037;-78
2023/09/04 01:58:38;;;;;;;4.50;4.10;;;;;;;;;;5015239;28;20041;-78
2023/09/04 02:01:04;;;;;;;4.22;3.83;;;;;;;;;;5016090;27;20053;-78
2023/09/04 02:03:29;;;;;;;4.57;4.18;;;;;;;;;;5031837;28;20102;-78
2023/09/04 02:05:54;;;;;;;6.55;4.28;;;;;;;;;;5032827;28;20029;-78
2023/09/04 02:08:20;;;;;;;7.07;4.40;;;;;;;;;;5010188;28;20029;-78
2023/09/04 02:10:47;;;;;;;6.22;4.57;;;;;;;;;;5009456;28;20037;-78
2023/09/04 02:13:12;;;;;;;5.30;4.32;;;;;;;;;;5030470;28;20069;-78
2023/09/04 02:15:39;;;;;;;4.50;4.10;;;;;;;;;;5027663;28;20048;-78
2023/09/04 02:18:04;;;;;;;6.63;4.40;;;;;;;;;;5029851;28;20022;-78
2023/09/04 02:20:30;;;;;;;5.25;3.50;;;;;;;;;;5028336;28;20423;-78
2023/09/04 02:22:56;;;;;;;4.10;3.75;;;;;;;;;;5029039;28;20037;-78
2023/09/04 02:25:22;;;;;;;4.45;3.67;;;;;;;;;;5028782;28;20543;-78
2023/09/04 02:27:47;;;;;;;4.80;4.30;;;;;;;;;;5027289;28;20116;-78
2023/09/04 02:30:13;;;;;;;7.80;5.15;;;;;;;;;;5010538;28;20122;-78
2023/09/04 02:32:38;;;;;;;5.50;5.00;;;;;;;;;;5035368;28;20017;-78
2023/09/04 02:35:04;;;;;;;4.95;4.35;;;;;;;;;;5026025;28;20024;-78
2023/09/04 02:37:29;;;;;;;8.98;4.82;;;;;;;;;;5011343;28;20041;-77
2023/09/04 02:39:55;;;;;;;7.20;4.80;;;;;;;;;;5025022;28;20178;-78
2023/09/04 02:42:20;;;;;;;6.13;4.45;;;;;;;;;;5011920;28;20414;-78
2023/09/04 02:44:45;;;;;;;7.07;4.40;;;;;;;;;;5040515;28;20505;-78
2023/09/04 02:47:11;;;;;;;4.57;4.10;;;;;;;;;;5036071;28;20034;-78
2023/09/04 02:49:36;;;;;;;7.95;4.10;;;;;;;;;;5029073;28;20034;-78
2023/09/04 02:52:01;;;;;;;4.45;3.83;;;;;;;;;;5011515;28;20072;-78
2023/09/04 02:54:27;;;;;;;4.50;4.10;;;;;;;;;;5012376;28;20042;-78
2023/09/04 02:56:52;;;;;;;7.15;4.20;;;;;;;;;;5014892;28;20467;-78
2023/09/04 02:59:17;;;;;;;5.13;4.43;;;;;;;;;;5030432;28;20175;-78
2023/09/04 03:01:42;;;;;;;4.55;4.15;;;;;;;;;;5031137;28;20683;-77
2023/09/04 03:04:08;;;;;;;5.57;3.67;;;;;;;;;;5014990;28;20124;-78
2023/09/04 03:06:33;;;;;;;4.90;4.40;;;;;;;;;;5031091;28;20346;-78
2023/09/04 03:08:59;;;;;;;5.47;4.70;;;;;;;;;;5030443;28;20032;-78
2023/09/04 03:11:24;;;;;;;4.90;4.40;;;;;;;;;;5017487;28;20668;-78
2023/09/04 03:13:50;;;;;;;5.63;5.13;;;;;;;;;;5031503;28;20041;-78
2023/09/04 03:16:15;;;;;;;5.43;4.88;;;;;;;;;;5014040;28;20058;-78
2023/09/04 03:18:40;;;;;;;7.05;5.18;;;;;;;;;;5016289;28;20025;-78
2023/09/04 03:21:05;;;;;;;6.80;5.28;;;;;;;;;;5030434;28;20494;-78
2023/09/04 03:23:32;;;;;;;6.47;5.05;;;;;;;;;;5035644;28;20052;-78
2023/09/04 03:25:57;;;;;;;7.22;5.60;;;;;;;;;;5012385;28;20042;-78
2023/09/04 03:28:23;;;;;;;9.80;6.40;;;;;;;;;;5015471;28;20038;-78
2023/09/04 03:30:48;;;;;;;6.25;5.60;;;;;;;;;;5030788;28;20053;-78
2023/09/04 03:33:13;;;;;;;9.02;7.00;;;;;;;;;;5031452;28;20024;-78
2023/09/04 03:35:39;;;;;;;13.73;6.13;;;;;;;;;;5033992;28;20026;-78
2023/09/04 03:38:04;;;;;;;8.27;6.15;;;;;;;;;;5031384;28;20034;-78
2023/09/04 03:40:30;;;;;;;7.03;5.60;;;;;;;;;;5028538;28;20038;-79
2023/09/04 03:42:55;;;;;;;8.10;6.20;;;;;;;;;;5017503;28;20036;-78
2023/09/04 03:45:21;;;;;;;6.38;5.50;;;;;;;;;;5032663;28;20074;-79
2023/09/04 03:47:48;;;;;;;6.32;5.28;;;;;;;;;;5033828;28;20021;-78
2023/09/04 03:50:13;;;;;;;6.18;5.57;;;;;;;;;;5031677;28;20037;-78
2023/09/04 03:52:40;;;;;;;7.00;6.10;;;;;;;;;;5013976;28;20041;-77
2023/09/04 03:55:07;;;;;;;7.90;6.00;;;;;;;;;;5025944;28;20033;-78
2023/09/04 03:57:35;;;;;;;6.50;5.90;;;;;;;;;;5011999;28;20066;-77
2023/09/04 04:00:00;;;;;;;8.07;5.57;;;;;;;;;;5026570;28;20400;-78
2023/09/04 04:02:25;;;;;;;7.97;5.53;;;;;;;;;;5027936;28;20033;-78
2023/09/04 04:04:52;;;;;;;6.25;5.63;;;;;;;;;;5014853;28;20038;-78
2023/09/04 04:07:17;;;;;;;8.90;6.53;;;;;;;;;;5029295;28;20037;-77
2023/09/04 04:09:44;;;;;;;7.60;6.63;;;;;;;;;;5030609;28;20036;-78
2023/09/04 04:12:10;;;;;;;8.98;7.35;;;;;;;;;;5009610;28;20051;-78
2023/09/04 04:14:35;;;;;;;17.67;10.57;;;;;;;;;;5028452;28;20033;-77
2023/09/04 04:17:01;;;;;;;9.57;7.57;;;;;;;;;;5028793;28;20034;-77
2023/09/04 04:19:27;;;;;;;18.27;12.45;;;;;;;;;;5011163;28;20483;-78
2023/09/04 04:21:52;;;;;;;16.70;11.88;;;;;;;;;;5028752;28;20051;-77
2023/09/04 04:24:17;;;;;;;16.10;11.25;;;;;;;;;;5027525;28;20053;-77
2023/09/04 04:26:43;;;;;;;10.57;8.15;;;;;;;;;;5013474;28;20017;-77
2023/09/04 04:29:08;;;;;;;9.82;7.53;;;;;;;;;;5032505;28;20419;-77
2023/09/04 04:31:34;;;;;;;9.60;6.82;;;;;;;;;;5029433;28;20033;-77
2023/09/04 04:33:59;;;;;;;9.40;7.10;;;;;;;;;;5029401;28;20052;-78
2023/09/04 04:36:24;;;;;;;9.27;7.38;;;;;;;;;;5025050;28;20057;-78
2023/09/04 04:38:50;;;;;;;11.27;6.90;;;;;;;;;;5015671;28;20051;-78
2023/09/04 04:41:15;;;;;;;9.30;7.05;;;;;;;;;;5009255;28;20065;-78
2023/09/04 04:43:40;;;;;;;7.70;6.85;;;;;;;;;;5012737;28;20510;-77
2023/09/04 04:46:06;;;;;;;10.45;6.93;;;;;;;;;;5011048;28;20037;-77
2023/09/04 04:48:31;;;;;;;8.65;7.10;;;;;;;;;;5009900;28;20189;-77
2023/09/04 04:50:56;;;;;;;10.07;7.05;;;;;;;;;;5027611;28;20066;-78
2023/09/04 04:53:22;;;;;;;11.27;6.57;;;;;;;;;;5031085;28;20098;-78
2023/09/04 04:55:47;;;;;;;10.90;7.05;;;;;;;;;;5014011;28;20033;-78
2023/09/04 04:58:12;;;;;;;10.32;6.90;;;;;;;;;;5026653;28;20038;-79
2023/09/04 05:00:38;;;;;;;8.10;6.70;;;;;;;;;;5026060;28;20042;-78
2023/09/04 05:03:04;;;;;;;7.75;6.65;;;;;;;;;;5008677;28;20040;-77
2023/09/04 05:05:30;;;;;;;9.75;6.93;;;;;;;;;;5028964;28;20021;-78
2023/09/04 05:07:55;;;;;;;8.93;7.15;;;;;;;;;;5015640;28;20037;-78
2023/09/04 05:10:20;;;;;;;11.82;7.93;;;;;;;;;;5036222;28;20036;-78
2023/09/04 05:12:45;;;;;;;11.85;7.95;;;;;;;;;;5035745;28;20116;-78
2023/09/04 05:15:11;;;;;;;9.15;6.65;;;;;;;;;;5031897;28;20034;-78
2023/09/04 05:17:36;;;;;;;8.32;5.70;;;;;;;;;;5028225;28;20194;-78
2023/09/04 05:20:03;;;;;;;7.15;6.38;;;;;;;;;;5027029;28;20037;-77
2023/09/04 05:22:30;;;;;;;7.38;6.43;;;;;;;;;;5025019;28;20045;-78
2023/09/04 05:24:55;;;;;;;6.22;5.63;;;;;;;;;;5010149;28;20371;-77
2023/09/04 05:27:21;;;;;;;7.45;5.40;;;;;;;;;;5009788;28;20029;-77
2023/09/04 05:29:46;;;;;;;6.18;4.75;;;;;;;;;;5010704;28;20044;-78
2023/09/04 05:32:11;;;;;;;4.90;4.50;;;;;;;;;;5015432;28;20543;-77
2023/09/04 05:34:39;;;;;;;5.00;4.60;;;;;;;;;;5010723;28;20713;-78
2023/09/04 05:37:06;;;;;;;4.72;4.32;;;;;;;;;;5025114;28;20034;-78
2023/09/04 05:39:31;;;;;;;5.07;4.43;;;;;;;;;;5024684;27;20057;-78
2023/09/04 05:41:56;;;;;;;7.07;4.35;;;;;;;;;;5012737;28;20099;-78
2023/09/04 05:44:22;;;;;;;5.53;4.35;;;;;;;;;;5008062;28;20453;-78
2023/09/04 05:46:47;;;;;;;5.90;4.85;;;;;;;;;;5025699;27;20120;-78
2023/09/04 05:49:13;;;;;;;5.10;4.40;;;;;;;;;;5027483;28;20552;-78
2023/09/04 05:51:39;;;;;;;5.70;4.47;;;;;;;;;;5036165;28;20043;-78
2023/09/04 05:54:04;;;;;;;7.13;4.45;;;;;;;;;;5032617;28;20030;-78
2023/09/04 05:56:29;;;;;;;6.38;4.35;;;;;;;;;;5016211;28;20085;-78
2023/09/04 05:58:56;;;;;;;6.00;4.75;;;;;;;;;;5012276;28;20172;-78
2023/09/04 06:01:23;;;;;;;4.57;4.07;;;;;;;;;;5027216;28;20034;-78
2023/09/04 06:03:49;;;;;;;4.88;4.10;;;;;;;;;;5029060;28;20041;-78
2023/09/04 06:06:15;;;;;;;4.75;4.25;;;;;;;;;;5010352;28;20037;-78
2023/09/04 06:08:41;;;;;;;4.80;4.28;;;;;;;;;;5027753;28;20032;-78
2023/09/04 06:11:06;;;;;;;4.97;4.40;;;;;;;;;;5006715;28;20042;-78
2023/09/04 06:13:32;;;;;;;4.72;4.25;;;;;;;;;;5025312;28;20042;-78
2023/09/04 06:15:59;;;;;;;5.40;4.13;;;;;;;;;;5027883;28;20045;-78
2023/09/04 06:18:25;;;;;;;4.85;4.15;;;;;;;;;;5030292;28;20070;-77
2023/09/04 06:20:50;;;;;;;4.28;3.88;;;;;;;;;;5010106;28;20029;-78
2023/09/04 06:23:16;;;;;;;6.63;3.75;;;;;;;;;;5027811;28;20044;-78
2023/09/04 06:25:43;;;;;;;4.28;3.88;;;;;;;;;;5003796;28;20495;-78
2023/09/04 06:28:12;;;;;;;4.40;3.90;;;;;;;;;;5024898;27;20137;-78
2023/09/04 06:30:37;;;;;;;4.53;3.67;;;;;;;;;;5025951;28;20060;-78
2023/09/04 06:33:03;;;;;;;8.57;3.63;;;;;;;;;;5009709;27;20049;-78
2023/09/04 06:35:29;;;;;;;4.45;4.00;;;;;;;;;;5025816;28;20440;-78
2023/09/04 06:37:55;;;;;;;4.60;3.70;;;;;;;;;;5031689;28;20041;-78
2023/09/04 06:40:21;;;;;;;3.90;3.53;;;;;;;;;;5028076;28;21150;-78
2023/09/04 06:42:46;;;;;;;3.42;3.13;;;;;;;;;;5032371;27;20101;-78
2023/09/04 06:45:12;;;;;;;4.43;3.22;;;;;;;;;;5013556;28;20029;-78
2023/09/04 06:47:38;;;;;;;3.28;3.05;;;;;;;;;;5009651;28;20065;-78
2023/09/04 06:50:05;;;;;;;6.80;3.28;;;;;;;;;;5028222;28;20073;-77
2023/09/04 06:52:30;;;;;;;3.90;3.05;;;;;;;;;;5010954;28;20490;-78
2023/09/04 06:54:55;;;;;;;3.00;2.80;;;;;;;;;;5007371;28;20036;-78
2023/09/04 06:57:21;;;;;;;3.35;3.05;;;;;;;;;;5013023;28;20032;-78
2023/09/04 06:59:46;;;;;;;3.38;3.08;;;;;;;;;;5014027;28;20115;-78
2023/09/04 07:02:11;;;;;;;3.28;2.90;;;;;;;;;;5008987;28;20041;-78
2023/09/04 07:04:36;;;;;;;2.97;2.75;;;;;;;;;;5028585;28;20041;-77
2023/09/04 07:07:02;;;;;;;4.68;2.83;;;;;;;;;;5008375;28;20033;-77
2023/09/04 07:09:27;;;;;;;3.17;2.92;;;;;;;;;;5026599;28;20029;-77
2023/09/04 07:11:52;;;;;;;2.88;2.67;;;;;;;;;;5029374;28;20117;-78
2023/09/04 07:14:18;;;;;;;3.55;3.03;;;;;;;;;;5026860;28;20056;-78
2023/09/04 07:16:43;;;;;;;4.03;2.90;;;;;;;;;;5029384;27;20120;-78
2023/09/04 07:19:08;;;;;;;2.80;2.60;;;;;;;;;;5011125;28;20402;-78
2023/09/04 07:21:36;;;;;;;3.67;2.72;;;;;;;;;;5028908;27;20078;-77
2023/09/04 07:24:01;;;;;;;3.13;2.83;;;;;;;;;;5027580;28;20014;-78
2023/09/04 07:26:26;;;;;;;2.47;2.28;;;;;;;;;;5009205;28;20030;-78
2023/09/04 07:28:53;;;;;;;3.78;2.90;;;;;;;;;;5029452;28;20044;-78
2023/09/04 07:31:19;;;;;;;2.97;2.75;;;;;;;;;;5013278;28;20171;-77
2023/09/04 07:33:49;;;;;;;2.60;2.40;;;;;;;;;;5010556;28;20071;-78
2023/09/04 07:36:15;;;;;;;2.47;2.28;;;;;;;;;;5007861;28;20479;-78
2023/09/04 07:38:41;;;;;;;3.35;2.40;;;;;;;;;;5014952;28;20047;-78
2023/09/04 07:41:07;;;;;;;2.50;2.30;;;;;;;;;;5031353;28;20416;-77
2023/09/04 07:43:32;;;;;;;2.67;2.30;;;;;;;;;;5018585;28;20140;-78
2023/09/04 07:45:58;;;;;;;2.75;2.55;;;;;;;;;;5041826;28;20049;-78
2023/09/04 07:48:24;;;;;;;2.65;2.38;;;;;;;;;;5029062;28;20411;-78
2023/09/04 07:50:52;;;;;;;2.83;2.58;;;;;;;;;;5013418;28;20027;-78
2023/09/04 07:53:17;;;;;;;2.50;2.30;;;;;;;;;;5009661;28;20555;-78
2023/09/04 07:55:42;;;;;;;2.70;2.50;;;;;;;;;;5031358;28;20082;-78
2023/09/04 07:58:08;;;;;;;2.10;1.90;;;;;;;;;;5029976;28;20030;-77
2023/09/04 08:00:33;;;;;;;3.50;2.80;;;;;;;;;;5010425;28;20565;-77
2023/09/04 08:02:59;;;;;;;2.50;2.30;;;;;;;;;;5028736;28;20043;-78
2023/09/04 08:05:24;;;;;;;5.00;2.53;;;;;;;;;;5026038;28;20117;-78
2023/09/04 08:07:50;;;;;;;3.55;2.58;;;;;;;;;;5010526;28;20061;-78
2023/09/04 08:10:15;;;;;;;2.30;2.20;;;;;;;;;;5029950;28;20037;-78
2023/09/04 08:12:41;;;;;;;5.07;2.47;;;;;;;;;;5010092;28;20041;-78
2023/09/04 08:15:08;;;;;;;2.72;2.45;;;;;;;;;;5028213;28;20052;-78
2023/09/04 08:17:33;;;;;;;2.60;2.40;;;;;;;;;;5027156;28;20022;-78
2023/09/04 08:19:59;;;;;;;2.65;2.45;;;;;;;;;;5029333;28;20025;-78
2023/09/04 08:22:25;;;;;;;2.60;2.50;;;;;;;;;;5028701;27;20398;-77
2023/09/04 08:24:50;;;;;;;2.80;2.60;;;;;;;;;;5015309;28;20046;-77
2023/09/04 08:27:15;;;;;;;3.42;2.20;;;;;;;;;;5035662;28;20285;-78
2023/09/04 08:29:41;;;;;;;2.42;2.25;;;;;;;;;;5031609;28;20375;-78
2023/09/04 08:32:06;;;;;;;1.90;1.80;;;;;;;;;;5030755;28;20040;-77
2023/09/04 08:34:31;;;;;;;2.50;2.30;;;;;;;;;;5012734;28;20116;-78
2023/09/04 08:36:57;;;;;;;5.32;2.13;;;;;;;;;;5030218;28;20511;-77
2023/09/04 08:39:22;;;;;;;2.30;2.10;;;;;;;;;;5029546;27;20053;-77
2023/09/04 08:41:49;;;;;;;3.75;2.30;;;;;;;;;;5030753;28;20128;-78
2023/09/04 08:44:15;;;;;;;14.57;2.45;;;;;;;;;;5008663;28;21336;-78
2023/09/04 08:46:45;;;;;;;2.55;2.30;;;;;;;;;;5023985;28;20070;-78
2023/09/04 08:49:10;;;;;;;2.40;2.20;;;;;;;;;;5026413;28;20504;-78
2023/09/04 08:51:36;;;;;;;2.80;2.60;;;;;;;;;;5007135;28;20703;-78
2023/09/04 08:54:01;;;;;;;2.47;2.28;;;;;;;;;;5015653;28;20044;-77
2023/09/04 08:56:30;;;;;;;2.70;2.50;;;;;;;;;;5025242;28;20515;-77
2023/09/04 08:58:55;;;;;;;2.38;2.25;;;;;;;;;;5036346;28;20121;-78
2023/09/04 09:01:22;;;;;;;4.55;2.85;;;;;;;;;;5005238;28;20041;-78
2023/09/04 09:03:48;;;;;;;2.70;2.50;;;;;;;;;;5027431;28;20363;-78
2023/09/04 09:06:13;;;;;;;2.58;2.38;;;;;;;;;;5011535;28;20392;-77
2023/09/04 09:08:42;;;;;;;3.28;1.90;;;;;;;;;;5029536;28;20494;-78
2023/09/04 09:11:08;;;;;;;2.50;2.30;;;;;;;;;;5027294;28;20049;-78
2023/09/04 09:13:33;;;;;;;2.28;1.75;;;;;;;;;;5030933;28;20045;-77
2023/09/04 09:15:58;;;;;;;2.42;2.05;;;;;;;;;;5024510;28;20030;-77
2023/09/04 09:18:35;;;;;;;2.28;2.10;;;;;;;;;;5006541;28;20700;-77
2023/09/04 09:21:00;;;;;;;3.85;2.03;;;;;;;;;;5011596;28;20036;-78
2023/09/04 09:23:26;;;;;;;2.38;2.15;;;;;;;;;;5026687;28;20045;-78
2023/09/04 09:25:54;;;;;;;1.77;1.67;;;;;;;;;;5011928;28;20421;-78
2023/09/04 09:28:20;;;;;;;2.47;2.28;;;;;;;;;;5022345;28;20133;-77
2023/09/04 09:30:46;;;;;;;2.60;2.03;;;;;;;;;;5007807;28;20071;-77
2023/09/04 09:33:12;;;;;;;3.05;2.33;;;;;;;;;;5028345;27;20033;-78
2023/09/04 09:35:42;;;;;;;3.75;2.40;;;;;;;;;;5025823;28;20055;-78
2023/09/04 09:38:08;;;;;;;3.38;2.20;;;;;;;;;;5010087;28;20081;-78
2023/09/04 09:40:34;;;;;;;1.70;1.60;;;;;;;;;;5030107;28;20041;-77
2023/09/04 09:43:00;;;;;;;6.70;1.50;;;;;;;;;;5022410;28;20063;-77
2023/09/04 09:45:38;;;;;;;4.13;2.13;;;;;;;;;;5022210;27;20045;-77
2023/09/04 09:48:07;;;;;;;2.00;1.75;;;;;;;;;;5023144;28;20391;-77
2023/09/04 09:50:34;;;;;;;2.92;2.25;;;;;;;;;;5011409;28;20029;-77
2023/09/04 09:53:01;;;;;;;2.35;1.90;;;;;;;;;;5020236;28;20037;-77
2023/09/04 09:55:29;;;;;;;4.05;1.90;;;;;;;;;;5018841;28;20544;-77
2023/09/04 09:57:56;;;;;;;2.25;1.92;;;;;;;;;;5021822;28;20041;-77
2023/09/04 10:00:22;;;;;;;3.15;1.63;;;;;;;;;;5016648;28;20044;-77
2023/09/04 10:02:48;;;;;;;3.88;2.15;;;;;;;;;;5022827;28;20042;-77
2023/09/04 10:05:13;;;;;;;2.88;2.00;;;;;;;;;;5021521;28;20041;-77
2023/09/04 10:07:39;;;;;;;2.00;1.85;;;;;;;;;;5020292;28;20037;-77
2023/09/04 10:10:06;;;;;;;2.42;1.58;;;;;;;;;;5022199;28;20086;-77
2023/09/04 10:12:35;;;;;;;2.33;1.60;;;;;;;;;;5006327;28;20065;-77
2023/09/04 10:15:01;;;;;;;6.00;1.50;;;;;;;;;;5024304;28;20021;-77
2023/09/04 10:17:35;;;;;;;1.65;1.55;;;;;;;;;;5004608;28;20037;-77
2023/09/04 10:20:02;;;;;;;;;;;;;;;;;;5006547;28;20083;-78
2023/09/04 10:22:35;;;;;;;1.70;1.60;;;;;;;;;;5005186;28;19913;-77
2023/09/04 10:25:04;;;;;;;2.97;1.83;;;;;;;;;;5024039;28;20041;-77
2023/09/04 10:27:32;;;;;;;1.60;1.50;;;;;;;;;;5022324;28;20094;-77
2023/09/04 10:30:05;;;;;;;1.60;1.50;;;;;;;;;;5006760;28;20735;-77
2023/09/04 10:32:31;;;;;;;1.60;1.50;;;;;;;;;;5021092;28;20049;-77
2023/09/04 10:34:57;;;;;;;1.92;1.80;;;;;;;;;;5023564;28;20502;-77
2023/09/04 10:37:26;;;;;;;2.55;1.40;;;;;;;;;;5024937;28;20030;-77
2023/09/04 10:39:52;;;;;;;1.77;1.55;;;;;;;;;;5024862;28;20492;-77
2023/09/04 10:42:18;;;;;;;3.03;1.63;;;;;;;;;;5024336;28;20337;-77
2023/09/04 10:44:56;;;;;;;2.22;1.40;;;;;;;;;;5023671;28;20029;-77
2023/09/04 10:47:21;;;;;;;1.30;1.20;;;;;;;;;;5022421;28;20030;-77
2023/09/04 10:49:47;;;;;;;1.50;1.40;;;;;;;;;;5024171;28;20093;-77
2023/09/04 10:52:13;;;;;;;1.70;1.55;;;;;;;;;;5004634;28;20061;-77
2023/09/04 10:54:40;;;;;;;1.60;1.50;;;;;;;;;;5006203;28;20030;-77
2023/09/04 10:57:10;;;;;;;1.58;1.48;;;;;;;;;;5007041;28;20071;-77
2023/09/04 10:59:54;;;;;;;1.42;1.25;;;;;;;;;;5025595;28;20033;-77
2023/09/04 11:02:27;;;;;;;1.55;1.45;;;;;;;;;;5023046;28;20590;-77
2023/09/04 11:04:53;;;;;;;3.10;1.90;;;;;;;;;;5006968;28;20034;-77
2023/09/04 11:07:21;;;;;;;2.08;1.60;;;;;;;;;;5006590;28;20063;-77
2023/09/04 11:09:48;;;;;;;1.70;1.60;;;;;;;;;;5022814;28;20063;-77
2023/09/04 11:12:23;;;;;;;1.42;1.33;;;;;;;;;;5023312;28;20100;-77
2023/09/04 11:14:52;;;;;;;1.77;1.67;;;;;;;;;;5025716;28;20171;-77
2023/09/04 11:17:22;;;;;;;1.65;1.55;;;;;;;;;;5027634;28;20073;-77
2023/09/04 11:19:50;;;;;;;2.08;1.50;;;;;;;;;;5032249;28;20124;-78
2023/09/04 11:22:18;;;;;;;1.80;1.70;;;;;;;;;;5015593;28;20033;-77
2023/09/04 11:24:44;;;;;;;2.85;1.55;;;;;;;;;;5033788;28;20037;-78
2023/09/04 11:27:09;;;;;;;1.60;1.50;;;;;;;;;;5034028;28;20026;-77
2023/09/04 11:29:35;;;;;;;1.83;1.40;;;;;;;;;;5034264;28;20025;-78
2023/09/04 11:32:01;;;;;;;2.30;1.55;;;;;;;;;;5016219;28;20113;-78
2023/09/04 11:34:26;;;;;;;1.60;1.50;;;;;;;;;;5032757;28;20068;-78
2023/09/04 11:36:52;;;;;;;1.73;1.40;;;;;;;;;;5015451;28;20040;-78
2023/09/04 11:39:17;;;;;;;2.20;1.85;;;;;;;;;;5033793;28;20100;-78
2023/09/04 11:41:42;;;;;;;1.75;1.50;;;;;;;;;;5016298;28;20085;-78
2023/09/04 11:44:08;;;;;;;1.67;1.58;;;;;;;;;;5034251;28;20483;-77
2023/09/04 11:46:34;;;;;;;1.70;1.60;;;;;;;;;;5014734;28;20112;-77
2023/09/04 11:49:01;;;;;;;1.70;1.60;;;;;;;;;;5013813;28;20407;-77
2023/09/04 11:51:26;;;;;;;1.60;1.50;;;;;;;;;;5013654;28;20033;-76
2023/09/04 11:53:53;;;;;;;1.63;1.52;;;;;;;;;;5031722;28;20044;-78
2023/09/04 11:56:18;;;;;;;2.28;1.60;;;;;;;;;;5013699;28;20097;-76
2023/09/04 11:58:43;;;;;;;1.70;1.60;;;;;;;;;;5013277;28;20333;-77
2023/09/04 12:01:09;;;;;;;1.70;1.60;;;;;;;;;;5011726;28;20040;-77
2023/09/04 12:03:35;;;;;;;2.10;1.80;;;;;;;;;;5029640;28;20046;-76
2023/09/04 12:06:00;;;;;;;1.50;1.40;;;;;;;;;;5031218;28;20071;-77
2023/09/04 12:08:25;;;;;;;2.40;1.52;;;;;;;;;;5029900;28;20037;-76
2023/09/04 12:10:54;;;;;;;1.73;1.63;;;;;;;;;;5029246;28;20029;-76
2023/09/04 12:13:19;;;;;;;2.05;1.70;;;;;;;;;;5029000;28;20125;-76
2023/09/04 12:15:46;;;;;;;3.15;1.90;;;;;;;;;;5029128;28;20590;-77
2023/09/04 12:18:12;;;;;;;1.88;1.77;;;;;;;;;;5029137;28;20032;-76
2023/09/04 12:20:42;;;;;;;1.85;1.67;;;;;;;;;;5029804;28;20056;-75
2023/09/04 12:23:08;;;;;;;1.83;1.73;;;;;;;;;;5028904;28;20141;-77
2023/09/04 12:25:38;;;;;;;1.80;1.70;;;;;;;;;;5028848;28;20034;-75
2023/09/04 12:28:08;;;;;;;1.92;1.83;;;;;;;;;;5010870;28;20033;-76
2023/09/04 12:30:38;;;;;;;3.20;1.90;;;;;;;;;;5028742;28;20030;-77
2023/09/04 12:33:06;;;;;;;2.08;1.85;;;;;;;;;;5028844;28;20471;-76
2023/09/04 12:35:31;;;;;;;3.13;1.92;;;;;;;;;;5011504;28;20089;-76
2023/09/04 12:37:57;;;;;;;1.85;1.75;;;;;;;;;;5028617;28;20491;-77
2023/09/04 12:40:22;;;;;;;1.80;1.70;;;;;;;;;;5028763;28;20038;-75
2023/09/04 12:42:47;;;;;;;1.95;1.65;;;;;;;;;;5028495;28;20499;-77
2023/09/04 12:45:13;;;;;;;1.83;1.73;;;;;;;;;;5028475;28;20049;-76
2023/09/04 12:47:40;;;;;;;2.33;1.95;;;;;;;;;;5028649;28;20025;-76
2023/09/04 12:50:06;;;;;;;5.10;1.98;;;;;;;;;;5028716;28;20037;-76
2023/09/04 12:52:31;;;;;;;2.05;1.85;;;;;;;;;;5028338;28;20037;-74
2023/09/04 12:54:57;;;;;;;1.85;1.75;;;;;;;;;;5028805;28;20034;-76
2023/09/04 12:57:22;;;;;;;2.83;2.22;;;;;;;;;;5028411;28;20181;-76
2023/09/04 12:59:47;;;;;;;2.00;1.80;;;;;;;;;;5028798;28;20106;-75
2023/09/04 13:02:13;;;;;;;3.72;1.80;;;;;;;;;;5028657;28;20396;-76
2023/09/04 13:04:38;;;;;;;4.45;1.90;;;;;;;;;;5028152;28;20030;-77
2023/09/04 13:07:04;;;;;;;2.10;1.90;;;;;;;;;;5028092;28;20040;-75
2023/09/04 13:09:29;;;;;;;1.92;1.77;;;;;;;;;;5010469;28;20050;-76
2023/09/04 13:11:56;;;;;;;2.95;1.67;;;;;;;;;;5028477;28;20025;-76
2023/09/04 13:14:21;;;;;;;3.08;2.40;;;;;;;;;;5028163;28;20070;-76
2023/09/04 13:16:47;;;;;;;2.00;1.90;;;;;;;;;;5009950;28;20503;-76
2023/09/04 13:19:13;;;;;;;2.47;1.98;;;;;;;;;;5010491;28;20038;-77
2023/09/04 13:21:39;;;;;;;2.60;2.20;;;;;;;;;;5028035;28;20033;-76
2023/09/04 13:24:05;;;;;;;2.15;1.98;;;;;;;;;;5028163;28;20407;-75
2023/09/04 13:26:30;;;;;;;1.92;1.83;;;;;;;;;;5028246;28;20049;-76
2023/09/04 13:28:55;;;;;;;2.05;1.83;;;;;;;;;;5010225;28;20033;-77
2023/09/04 13:31:21;;;;;;;2.00;1.80;;;;;;;;;;5027928;28;20034;-76
2023/09/04 13:33:46;;;;;;;1.80;1.70;;;;;;;;;;5010019;28;20035;-77
2023/09/04 13:36:11;;;;;;;2.58;1.95;;;;;;;;;;5009093;28;20021;-76
2023/09/04 13:38:37;;;;;;;2.25;2.05;;;;;;;;;;5010454;28;20025;-77
2023/09/04 13:41:02;;;;;;;2.30;2.10;;;;;;;;;;5009578;28;20113;-76
2023/09/04 13:43:28;;;;;;;3.30;2.10;;;;;;;;;;5027812;28;20033;-75
2023/09/04 13:45:53;;;;;;;4.50;1.98;;;;;;;;;;5027586;28;20098;-76
2023/09/04 13:48:18;;;;;;;2.03;1.92;;;;;;;;;;5009996;28;20379;-76
2023/09/04 13:50:43;;;;;;;3.72;2.05;;;;;;;;;;5028005;28;20065;-77
2023/09/04 13:53:09;;;;;;;1.95;1.75;;;;;;;;;;5026733;28;20042;-77
2023/09/04 13:55:34;;;;;;;2.53;2.33;;;;;;;;;;5027322;28;20053;-76
2023/09/04 13:57:59;;;;;;;3.10;2.00;;;;;;;;;;5026726;28;20085;-77
2023/09/04 14:00:25;;;;;;;2.67;2.00;;;;;;;;;;5008927;28;20112;-76
2023/09/04 14:02:50;;;;;;;2.20;2.03;;;;;;;;;;5027670;28;20029;-76
2023/09/04 14:05:16;;;;;;;2.13;1.92;;;;;;;;;;5027026;28;20166;-76
2023/09/04 14:07:42;;;;;;;2.00;1.83;;;;;;;;;;5026002;28;20090;-77
2023/09/04 14:10:07;;;;;;;3.55;2.30;;;;;;;;;;5027237;28;20030;-77
2023/09/04 14:12:33;;;;;;;2.80;2.25;;;;;;;;;;5027276;28;20041;-76
2023/09/04 14:14:58;;;;;;;2.45;2.25;;;;;;;;;;5009914;28;20454;-76
2023/09/04 14:17:23;;;;;;;2.25;2.05;;;;;;;;;;5027695;28;20037;-77
2023/09/04 14:19:49;;;;;;;2.10;1.90;;;;;;;;;;5027696;28;20040;-77
2023/09/04 14:22:14;;;;;;;4.65;1.90;;;;;;;;;;5009269;28;20049;-77
2023/09/04 14:24:39;;;;;;;2.13;2.00;;;;;;;;;;5008976;28;20564;-76
2023/09/04 14:27:05;;;;;;;2.10;2.00;;;;;;;;;;5026763;28;20063;-76
2023/09/04 14:29:30;;;;;;;2.22;2.05;;;;;;;;;;5027343;28;20018;-74
2023/09/04 14:31:56;;;;;;;3.25;2.05;;;;;;;;;;5026931;28;20037;-77
2023/09/04 14:34:21;;;;;;;2.35;2.15;;;;;;;;;;5008909;28;20499;-76
2023/09/04 14:36:47;;;;;;;2.42;2.22;;;;;;;;;;5026663;28;20065;-76